Daleville, Mississippi
Current Conditions -  °F | °C
As of 5:56 AM on Monday 26 Jan 2015 (Local Time) from KNMM Reporting Station
Overcast Overcast  
Wind Chill: 39°   Ceiling: 2600
Heat Index: 45°   Visibility: 10mi
Dew Point: 35°   Wind: 14mph
Humidity: 68%   Direction: 310°NW
Pressure: 29.99"   Gusts: NA
Location:  32.57°N, 88.68°W
Report Text: KNMM 261156Z AUTO 31012KT 10SM BKN026 OVC044 07/02 A2999 RMK AO2 SLP166 T00720017 10094 20072 50013 $
Loading
Personal Weather Stations






























Interactive Weather Map New forecast layout! Learn more

10-Day Weather Forecast

Advertisements
Track Severe Weather on mobile